Terminal Aerodrome Forecast
Issued by NWS

Home | Current Version | Previous Version | Text Only | Print | Product List | Glossary On
Versions: 1 2 3 4 5 6 7 8 9 10 11 12 13
000
FTUS45 KABQ 282339
TAFLVS
TAF
KLVS 282339Z 2900/2924 06010KT P6SM BKN250
     FM290200 13010KT P6SM SCT100 BKN250
     FM290500 06006KT P6SM SCT100 OVC250
     FM291500 15010KT P6SM SCT090 OVC250
     FM291800 19012G20KT P6SM BKN080 OVC250=

USA.gov is the U.S. government's official web portal to all federal, state and local government web resources and services.